createdAt,value
2022-11-15T00:00:02.445Z,100562.03
2022-11-15T05:00:56.324Z,100298.24
2022-11-15T05:04:04.694Z,100295.23
2022-11-15T05:06:53.206Z,100288.59
2022-11-15T05:09:39.514Z,100282.80
2022-11-15T05:12:26.411Z,100279.25
2022-11-15T05:15:13.291Z,100278.27
2022-11-15T05:18:02.008Z,100271.41
2022-11-15T05:20:49.044Z,100263.39
2022-11-15T05:23:35.956Z,100259.36
2022-11-15T05:26:22.742Z,100250.86
2022-11-15T05:29:11.650Z,100246.33
2022-11-15T05:31:58.467Z,100243.79
2022-11-15T05:34:46.534Z,100243.27
2022-11-15T05:37:33.284Z,100237.79
2022-11-15T05:40:19.890Z,100239.64
2022-11-15T05:43:07.888Z,100238.64
2022-11-15T05:45:55.025Z,100234.19
2022-11-15T05:48:50.010Z,100235.77
2022-11-15T05:51:37.016Z,100238.86
2022-11-15T05:54:24.891Z,100246.48
2022-11-15T05:57:11.740Z,100254.66
2022-11-15T05:59:58.544Z,100252.89
2022-11-15T06:02:45.244Z,100258.75
2022-11-15T06:05:31.251Z,100255.45
2022-11-15T06:08:17.967Z,100253.02
2022-11-15T06:11:07.022Z,100252.70
2022-11-15T06:13:56.311Z,100256.58
2022-11-15T06:16:42.097Z,100266.02
2022-11-15T06:19:28.769Z,100270.63
2022-11-15T06:22:15.749Z,100272.29
2022-11-15T06:25:05.440Z,100276.22
2022-11-15T06:27:57.299Z,100276.83
2022-11-15T06:30:43.469Z,100282.35
2022-11-15T06:33:30.411Z,100281.38
2022-11-15T06:36:20.824Z,100282.60
2022-11-15T06:39:07.610Z,100285.06
2022-11-15T06:41:54.204Z,100287.79
2022-11-15T06:44:40.876Z,100290.67
2022-11-15T06:47:27.272Z,100295.88
2022-11-15T06:50:13.307Z,100289.05
2022-11-15T06:53:04.000Z,100289.54
2022-11-15T06:55:55.040Z,100292.31
2022-11-15T06:58:41.903Z,100292.30
2022-11-15T07:01:28.909Z,100292.52
2022-11-15T07:04:16.351Z,100290.03
2022-11-15T07:07:03.200Z,100287.67
2022-11-15T07:09:49.919Z,100286.18
2022-11-15T07:12:36.721Z,100280.29
2022-11-15T07:15:26.280Z,100279.12
2022-11-15T07:18:13.188Z,100281.10
2022-11-15T07:21:03.885Z,100280.73
2022-11-15T07:23:50.519Z,100271.55
2022-11-15T07:26:37.532Z,100271.34
2022-11-15T07:29:24.688Z,100269.67
2022-11-15T07:32:11.844Z,100269.44
2022-11-15T07:34:58.779Z,100269.84
2022-11-15T07:37:45.380Z,100266.86
2022-11-15T07:40:33.914Z,100263.41
2022-11-15T07:43:20.909Z,100264.18
2022-11-15T07:46:11.041Z,100259.45
2022-11-15T07:48:57.997Z,100261.99
2022-11-15T07:51:46.051Z,100264.91
2022-11-15T07:54:33.003Z,100260.21
2022-11-15T07:57:19.803Z,100260.90
2022-11-15T08:00:08.143Z,100256.33
2022-11-15T08:02:54.033Z,100256.40
2022-11-15T08:05:43.014Z,100254.63
2022-11-15T08:08:30.064Z,100252.56
2022-11-15T08:11:16.825Z,100251.50
2022-11-15T08:14:03.745Z,100247.35
2022-11-15T08:16:50.483Z,100247.09
2022-11-15T08:19:37.250Z,100246.23
2022-11-15T08:22:23.978Z,100243.51
2022-11-15T08:25:10.431Z,100239.40
2022-11-15T08:27:59.531Z,100241.06
2022-11-15T08:30:47.193Z,100241.87
2022-11-15T08:33:34.579Z,100240.93
2022-11-15T08:36:21.084Z,100243.59
2022-11-15T08:39:07.750Z,100240.91
2022-11-15T08:41:54.150Z,100243.68
2022-11-15T08:44:40.926Z,100245.41
2022-11-15T08:47:27.769Z,100250.11
2022-11-15T08:50:14.182Z,100249.29
2022-11-15T08:53:06.492Z,100249.16
2022-11-15T08:55:53.094Z,100247.50
2022-11-15T08:58:40.031Z,100248.40
2022-11-15T09:01:27.262Z,100245.45
2022-11-15T09:04:14.995Z,100238.36
2022-11-15T09:07:01.718Z,100234.77
2022-11-15T09:09:47.918Z,100230.46
2022-11-15T09:12:34.760Z,100228.37
2022-11-15T09:15:21.054Z,100227.31
2022-11-15T09:18:07.835Z,100219.45
2022-11-15T09:21:00.565Z,100219.11
2022-11-15T09:23:46.867Z,100224.02
2022-11-15T09:26:33.496Z,100219.58
2022-11-15T09:29:20.638Z,100218.70
2022-11-15T09:32:07.384Z,100211.55
2022-11-15T09:34:53.967Z,100210.33
2022-11-15T09:37:40.726Z,100214.14
2022-11-15T09:40:27.679Z,100213.61
2022-11-15T09:43:43.041Z,100212.96
2022-11-15T09:46:58.567Z,100205.02
2022-11-15T09:50:00.695Z,100208.44
2022-11-15T09:52:36.733Z,100212.47
2022-11-15T09:55:06.778Z,100213.29
2022-11-15T09:58:15.323Z,100206.95
2022-11-15T10:00:49.995Z,100199.51
2022-11-15T10:03:47.442Z,100193.23
2022-11-15T10:10:44.598Z,100188.67
2022-11-15T10:13:24.083Z,100184.30
2022-11-15T10:15:53.842Z,100182.34
2022-11-15T10:18:52.015Z,100175.05
2022-11-15T10:21:23.190Z,100172.26
2022-11-15T10:23:52.349Z,100174.80
2022-11-15T10:26:19.606Z,100175.38
2022-11-15T10:28:46.738Z,100172.52
2022-11-15T10:31:29.828Z,100165.79
2022-11-15T10:34:17.629Z,100171.88
2022-11-15T10:36:56.637Z,100171.17
2022-11-15T10:39:25.688Z,100171.70
2022-11-15T10:41:53.312Z,100166.67
2022-11-15T10:44:26.050Z,100167.73
2022-11-15T10:46:57.200Z,100166.32
2022-11-15T10:49:32.360Z,100165.41
2022-11-15T10:52:05.895Z,100159.40
2022-11-15T10:54:43.571Z,100157.49
2022-11-15T10:57:22.567Z,100153.96
2022-11-15T10:59:55.051Z,100148.05
2022-11-15T11:02:33.915Z,100148.50
2022-11-15T11:05:03.947Z,100146.05
2022-11-15T11:07:34.067Z,100140.06
2022-11-15T11:10:52.791Z,100135.03
2022-11-15T11:13:36.522Z,100134.94
2022-11-15T11:16:03.856Z,100139.14
2022-11-15T11:18:39.750Z,100139.68
2022-11-15T11:21:14.856Z,100139.31
2022-11-15T11:28:45.833Z,100130.34
2022-11-15T11:31:44.314Z,100128.30
2022-11-15T11:34:19.771Z,100121.41
2022-11-15T11:36:55.706Z,100115.08
2022-11-15T11:39:46.735Z,100118.42
2022-11-15T11:42:32.745Z,100117.60
2022-11-15T11:45:15.301Z,100113.77
2022-11-15T11:47:51.649Z,100119.11
2022-11-15T11:50:26.488Z,100118.26
2022-11-15T11:57:34.623Z,100103.78
2022-11-15T12:00:20.251Z,100105.48
2022-11-15T12:03:09.281Z,100105.46
2022-11-15T12:05:45.050Z,100106.27
2022-11-15T12:08:36.183Z,100105.40
2022-11-15T12:11:19.743Z,100109.44
2022-11-15T12:13:52.092Z,100101.34
2022-11-15T12:16:29.761Z,100097.83
2022-11-15T12:19:02.603Z,100103.83
2022-11-15T12:21:40.930Z,100100.39
2022-11-15T12:24:25.943Z,100096.11
2022-11-15T12:27:08.750Z,100085.83
2022-11-15T12:29:44.017Z,100082.43
2022-11-15T12:32:35.202Z,100082.02
2022-11-15T12:35:05.311Z,100079.80
2022-11-15T12:37:39.004Z,100076.14
2022-11-15T12:40:26.239Z,100078.98
2022-11-15T12:43:01.193Z,100074.33
2022-11-15T12:45:31.413Z,100070.90
2022-11-15T12:48:17.487Z,100071.03
2022-11-15T12:50:54.786Z,100071.38
2022-11-15T12:53:29.336Z,100072.25
2022-11-15T12:56:18.375Z,100070.34
2022-11-15T12:58:52.323Z,100071.67
2022-11-15T13:01:33.486Z,100073.64
2022-11-15T13:04:19.609Z,100078.16
2022-11-15T13:06:49.805Z,100076.73
2022-11-15T13:09:35.589Z,100074.66
2022-11-15T13:12:29.056Z,100068.98
2022-11-15T13:15:15.159Z,100062.69
2022-11-15T13:17:52.503Z,100063.73
2022-11-15T13:20:31.255Z,100064.77
2022-11-15T13:23:17.454Z,100061.05
2022-11-15T13:26:11.624Z,100060.85
2022-11-15T13:28:49.160Z,100065.98
2022-11-15T13:31:22.622Z,100061.39
2022-11-15T13:33:50.993Z,100057.85
2022-11-15T13:36:24.355Z,100059.11
2022-11-15T13:39:02.922Z,100059.73
2022-11-15T13:41:33.641Z,100058.23
2022-11-15T13:44:03.015Z,100053.33
2022-11-15T13:46:34.144Z,100056.45
2022-11-15T13:49:09.461Z,100047.13
2022-11-15T13:51:43.900Z,100051.27
2022-11-15T13:54:14.146Z,100050.98
2022-11-15T13:56:48.711Z,100052.38
2022-11-15T13:59:36.386Z,100059.27
2022-11-15T14:02:16.092Z,100058.97
2022-11-15T14:05:15.074Z,100057.58
2022-11-15T14:07:55.384Z,100058.06
2022-11-15T14:10:32.194Z,100055.77
2022-11-15T14:13:00.921Z,100054.33
2022-11-15T14:15:37.829Z,100048.52
2022-11-15T14:18:06.559Z,100043.09
2022-11-15T14:20:40.365Z,100040.19
2022-11-15T14:23:21.421Z,100039.83
2022-11-15T14:25:57.403Z,100043.48
2022-11-15T14:28:24.849Z,100042.36
2022-11-15T14:30:55.262Z,100037.52
2022-11-15T14:33:29.745Z,100031.71
2022-11-15T14:36:00.062Z,100032.69
2022-11-15T14:38:27.905Z,100025.52
2022-11-15T14:40:57.246Z,100023.36
2022-11-15T14:43:26.337Z,100022.45
2022-11-15T14:45:54.394Z,100025.05
2022-11-15T14:48:23.699Z,100025.02
2022-11-15T14:50:54.703Z,100027.52
2022-11-15T14:53:23.715Z,100025.44
2022-11-15T14:55:51.595Z,100025.91
2022-11-15T14:58:19.327Z,100022.73
2022-11-15T15:00:47.349Z,100018.15
2022-11-15T15:03:15.444Z,100017.27
2022-11-15T15:05:45.066Z,100017.42
2022-11-15T15:08:13.432Z,100014.64
2022-11-15T15:10:45.296Z,100015.61
2022-11-15T15:13:24.111Z,100012.66
2022-11-15T15:15:53.281Z,100016.56
2022-11-15T15:18:22.064Z,100021.43
2022-11-15T15:21:01.469Z,100023.75
2022-11-15T15:23:32.032Z,100025.54
2022-11-15T15:25:59.986Z,100028.35
2022-11-15T15:28:34.032Z,100025.70
2022-11-15T15:31:03.376Z,100026.96
2022-11-15T15:39:25.045Z,100020.69
2022-11-15T15:41:57.282Z,100020.67
2022-11-15T15:44:25.072Z,100020.27
2022-11-15T15:46:52.971Z,100020.84
2022-11-15T15:49:21.028Z,100015.71
2022-11-15T15:51:49.066Z,100015.60
2022-11-15T15:54:16.555Z,100011.83
2022-11-15T15:56:43.843Z,100016.52
2022-11-15T15:59:11.260Z,100011.21
2022-11-15T16:01:40.962Z,100014.20
2022-11-15T16:04:13.474Z,100004.84
2022-11-15T16:06:46.238Z,100000.27
2022-11-15T16:09:17.130Z,99998.79
2022-11-15T16:12:10.700Z,99996.89
2022-11-15T16:14:38.984Z,99996.39
2022-11-15T16:17:07.726Z,99995.71
2022-11-15T16:19:35.716Z,99998.27
2022-11-15T16:22:03.692Z,99993.34
2022-11-15T16:24:31.939Z,99994.52
2022-11-15T16:27:00.090Z,99994.14
2022-11-15T16:29:29.727Z,99997.16
2022-11-15T16:31:57.754Z,99994.92
2022-11-15T16:34:30.022Z,99994.41
2022-11-15T16:36:59.165Z,99991.97
2022-11-15T16:39:29.404Z,99993.09
2022-11-15T16:42:01.018Z,99996.29
2022-11-15T16:44:29.850Z,99997.34
2022-11-15T16:46:57.930Z,99995.13
2022-11-15T16:49:26.004Z,99994.68
2022-11-15T16:51:54.590Z,99994.70
2022-11-15T16:54:22.442Z,99991.39
2022-11-15T16:56:50.759Z,99990.83
2022-11-15T16:59:18.956Z,99991.30
2022-11-15T17:01:53.159Z,99993.05
2022-11-15T17:04:23.605Z,99996.20
2022-11-15T17:06:51.088Z,99995.77
2022-11-15T17:09:27.749Z,100000.54
2022-11-15T17:11:55.704Z,100004.38
2022-11-15T17:14:23.611Z,100005.48
2022-11-15T17:16:51.310Z,100006.52
2022-11-15T17:19:21.449Z,100006.75
2022-11-15T17:21:50.493Z,100004.48
2022-11-15T17:24:21.469Z,100000.96
2022-11-15T17:26:51.234Z,99999.46
2022-11-15T17:29:19.182Z,100000.10
2022-11-15T17:31:47.240Z,99991.95
2022-11-15T17:34:15.047Z,99990.02
2022-11-15T17:36:42.329Z,99988.67
2022-11-15T17:39:09.338Z,99986.45
2022-11-15T17:41:37.372Z,99990.48
2022-11-15T17:44:05.408Z,99990.40
2022-11-15T17:46:34.463Z,99990.61
2022-11-15T17:49:02.697Z,99990.75
2022-11-15T17:51:29.960Z,99990.60
2022-11-15T17:53:57.098Z,99987.27
2022-11-15T17:56:26.423Z,99984.27
2022-11-15T17:58:59.254Z,99987.44
2022-11-15T18:01:29.558Z,99992.10
2022-11-15T18:04:00.888Z,99995.65
2022-11-15T18:06:33.106Z,100002.88
2022-11-15T18:09:01.174Z,100000.27
2022-11-15T18:11:41.338Z,100004.34
2022-11-15T18:14:14.341Z,100007.39
2022-11-15T18:16:42.006Z,100002.46
2022-11-15T18:19:14.273Z,99993.27
2022-11-15T18:22:01.114Z,99991.73
2022-11-15T18:24:37.160Z,99991.73
2022-11-15T18:27:06.857Z,99986.83
2022-11-15T18:29:38.077Z,99982.61
2022-11-15T18:32:11.869Z,99980.58
2022-11-15T18:34:40.028Z,99974.34
2022-11-15T18:37:08.127Z,99970.73
2022-11-15T18:39:36.352Z,99967.94
2022-11-15T18:42:04.681Z,99965.83
2022-11-15T18:44:32.408Z,99968.41
2022-11-15T18:47:00.443Z,99972.46
2022-11-15T18:49:28.468Z,99978.27
2022-11-15T18:51:57.284Z,99983.82
2022-11-15T18:54:30.619Z,99979.43
2022-11-15T18:56:58.480Z,99979.89
2022-11-15T18:59:28.096Z,99976.34
2022-11-15T19:01:56.270Z,99973.15
2022-11-15T19:04:24.032Z,99978.31
2022-11-15T19:06:54.063Z,99978.85
2022-11-15T19:09:21.625Z,99981.45
2022-11-15T19:11:51.840Z,99978.68
2022-11-15T19:14:20.056Z,99981.51
2022-11-15T19:16:50.605Z,99987.02
2022-11-15T19:19:24.141Z,99982.76
2022-11-15T19:21:52.817Z,99976.34
2022-11-15T19:24:20.988Z,99973.98
2022-11-15T19:26:48.164Z,99976.44
2022-11-15T19:29:15.850Z,99976.48
2022-11-15T19:31:43.536Z,99972.07
2022-11-15T19:34:11.697Z,99971.13
2022-11-15T19:36:41.309Z,99970.70
2022-11-15T19:39:13.421Z,99973.33
2022-11-15T19:41:43.229Z,99976.09
2022-11-15T19:44:12.537Z,99982.80
2022-11-15T19:46:41.267Z,99982.44
2022-11-15T19:49:11.480Z,99979.95
2022-11-15T19:51:42.828Z,99976.29
2022-11-15T19:54:10.803Z,99974.25
2022-11-15T19:56:40.362Z,99975.19
2022-11-15T19:59:08.269Z,99978.45
2022-11-15T20:01:39.459Z,99980.93
2022-11-15T20:04:10.411Z,99983.16
2022-11-15T20:06:42.685Z,99985.45
2022-11-15T20:09:15.183Z,99985.50
2022-11-15T20:11:43.720Z,99983.73
2022-11-15T20:14:13.355Z,99983.86
2022-11-15T20:16:41.001Z,99981.48
2022-11-15T20:19:09.083Z,99980.53
2022-11-15T20:21:36.469Z,99980.56
2022-11-15T20:24:05.892Z,99982.40
2022-11-15T20:26:33.389Z,99982.80
2022-11-15T20:29:02.406Z,99988.55
2022-11-15T20:31:30.603Z,99978.99
2022-11-15T20:33:57.898Z,99973.66
2022-11-15T20:36:25.209Z,99967.00
2022-11-15T20:38:57.483Z,99964.23
2022-11-15T20:41:25.117Z,99963.41
2022-11-15T20:43:54.087Z,99966.90
2022-11-15T20:46:21.722Z,99965.29
2022-11-15T20:48:49.547Z,99963.77
2022-11-15T20:51:18.969Z,99957.12
2022-11-15T20:53:48.373Z,99953.84
2022-11-15T20:56:21.739Z,99950.89
2022-11-15T20:58:53.700Z,99951.59
2022-11-15T21:01:25.855Z,99952.32
2022-11-15T21:03:55.519Z,99950.27
2022-11-15T21:06:23.979Z,99950.75
2022-11-15T21:09:11.721Z,99954.77
2022-11-15T21:11:58.547Z,99959.97
2022-11-15T21:14:27.891Z,99960.13
2022-11-15T21:16:55.242Z,99959.64
2022-11-15T21:19:29.106Z,99954.66
2022-11-15T21:22:03.194Z,99952.89
2022-11-15T21:24:30.905Z,99951.13
2022-11-15T21:26:58.689Z,99948.23
2022-11-15T21:29:26.301Z,99946.89
2022-11-15T21:31:53.910Z,99941.09
2022-11-15T21:34:21.369Z,99939.41
2022-11-15T21:36:49.154Z,99935.33
2022-11-15T21:39:16.264Z,99933.00
2022-11-15T21:41:43.534Z,99935.73
2022-11-15T21:44:10.982Z,99930.23
2022-11-15T21:46:38.386Z,99924.76
2022-11-15T21:49:07.279Z,99922.44
2022-11-15T21:51:34.915Z,99918.69
2022-11-15T21:54:02.803Z,99920.69
2022-11-15T21:56:30.694Z,99918.66
2022-11-15T21:58:58.075Z,99916.06
2022-11-15T22:01:46.598Z,99914.85
2022-11-15T22:04:15.145Z,99913.28
2022-11-15T22:06:44.048Z,99908.57
2022-11-15T22:09:12.029Z,99907.28
2022-11-15T22:11:39.628Z,99910.84
2022-11-15T22:14:07.254Z,99911.09
2022-11-15T22:16:35.993Z,99920.56
2022-11-15T22:19:04.656Z,99922.30
2022-11-15T22:21:32.248Z,99918.59
2022-11-15T22:24:00.135Z,99915.19
2022-11-15T22:26:27.627Z,99913.83
2022-11-15T22:28:55.007Z,99912.23
2022-11-15T22:31:22.439Z,99915.02
2022-11-15T22:33:50.412Z,99912.08
2022-11-15T22:36:18.367Z,99909.70
2022-11-15T22:38:46.346Z,99910.56
2022-11-15T22:41:14.210Z,99904.39
2022-11-15T22:43:42.350Z,99901.02
2022-11-15T22:46:11.370Z,99893.41
2022-11-15T22:48:40.179Z,99883.98
2022-11-15T22:51:08.589Z,99879.85
2022-11-15T22:53:36.579Z,99881.86
2022-11-15T22:56:06.875Z,99883.20
2022-11-15T22:58:35.144Z,99883.17
2022-11-15T23:01:05.307Z,99878.23
2022-11-15T23:03:34.639Z,99880.77
2022-11-15T23:06:07.587Z,99881.84
2022-11-15T23:08:35.951Z,99879.12
2022-11-15T23:11:24.152Z,99885.33
2022-11-15T23:13:52.493Z,99883.11
2022-11-15T23:16:24.112Z,99885.77
2022-11-15T23:18:58.213Z,99889.06
2022-11-15T23:21:50.889Z,99885.67
2022-11-15T23:24:19.662Z,99882.99
2022-11-15T23:26:49.559Z,99883.80
2022-11-15T23:29:19.308Z,99881.92
2022-11-15T23:32:06.327Z,99867.39
2022-11-15T23:34:38.387Z,99865.93
2022-11-15T23:37:07.518Z,99863.83
2022-11-15T23:39:35.457Z,99865.33
2022-11-15T23:42:08.776Z,99864.44
2022-11-15T23:44:37.970Z,99862.63
2022-11-15T23:47:06.128Z,99855.57
2022-11-15T23:49:33.661Z,99853.77
2022-11-15T23:52:01.610Z,99853.98
2022-11-15T23:54:31.284Z,99846.60
2022-11-15T23:56:59.475Z,99839.61
2022-11-15T23:59:27.066Z,99834.59
